createdAt,value
2018-08-07T00:00:38.996Z,27.62
2018-08-07T00:03:09.834Z,28.24
2018-08-07T00:05:40.825Z,28.10
2018-08-07T00:08:11.222Z,28.10
2018-08-07T00:10:41.269Z,28.15
2018-08-07T00:13:13.510Z,27.65
2018-08-07T00:15:46.314Z,27.81
2018-08-07T00:18:16.798Z,27.97
2018-08-07T00:20:48.527Z,27.56
2018-08-07T00:23:19.663Z,27.42
2018-08-07T00:25:50.244Z,28.30
2018-08-07T00:28:21.571Z,27.50
2018-08-07T00:30:51.944Z,28.04
2018-08-07T00:33:23.824Z,27.11
2018-08-07T00:35:54.258Z,27.29
2018-08-07T00:38:25.276Z,27.38
2018-08-07T00:40:55.464Z,28.37
2018-08-07T00:43:26.622Z,27.83
2018-08-07T00:45:57.296Z,27.96
2018-08-07T00:48:27.757Z,28.52
2018-08-07T00:50:59.266Z,28.24
2018-08-07T00:53:30.697Z,28.62
2018-08-07T00:56:02.103Z,28.38
2018-08-07T00:58:32.760Z,28.37
2018-08-07T01:01:04.308Z,28.63
2018-08-07T01:03:35.368Z,29.58
2018-08-07T01:06:07.884Z,30.05
2018-08-07T01:08:38.761Z,29.21
2018-08-07T01:11:09.723Z,29.36
2018-08-07T01:13:40.739Z,29.53
2018-08-07T01:16:12.258Z,28.66
2018-08-07T01:18:43.053Z,29.32
2018-08-07T01:21:13.395Z,29.23
2018-08-07T01:23:43.930Z,28.71
2018-08-07T01:26:15.947Z,29.57
2018-08-07T01:28:46.662Z,29.85
2018-08-07T01:31:17.491Z,29.19
2018-08-07T01:33:47.632Z,30.05
2018-08-07T01:36:18.585Z,29.44
2018-08-07T01:38:50.493Z,29.41
2018-08-07T01:41:20.854Z,29.94
2018-08-07T01:43:52.456Z,30.43
2018-08-07T01:46:24.526Z,31.21
2018-08-07T01:48:57.079Z,32.05
2018-08-07T01:51:29.229Z,31.56
2018-08-07T01:54:00.291Z,32.69
2018-08-07T01:56:30.943Z,32.38
2018-08-07T01:59:02.072Z,32.74
2018-08-07T02:01:32.930Z,33.62
2018-08-07T02:04:03.545Z,33.50
2018-08-07T02:06:34.262Z,33.88
2018-08-07T02:09:04.670Z,33.67
2018-08-07T02:11:37.283Z,34.19
2018-08-07T02:14:07.916Z,34.12
2018-08-07T02:16:38.964Z,33.81
2018-08-07T02:19:09.487Z,34.48
2018-08-07T02:21:39.926Z,34.78
2018-08-07T02:24:10.853Z,34.01
2018-08-07T02:26:41.833Z,34.75
2018-08-07T02:29:12.303Z,34.67
2018-08-07T02:31:43.240Z,35.14
2018-08-07T02:34:13.932Z,34.71
2018-08-07T02:36:44.500Z,35.45
2018-08-07T02:39:14.647Z,34.32
2018-08-07T02:41:45.620Z,35.53
2018-08-07T02:44:15.923Z,35.19
2018-08-07T02:46:47.678Z,35.62
2018-08-07T02:49:18.572Z,35.18
2018-08-07T02:51:49.738Z,35.27
2018-08-07T02:54:21.044Z,35.70
2018-08-07T02:56:51.424Z,35.17
2018-08-07T02:59:21.821Z,35.53
2018-08-07T03:01:53.421Z,35.17
2018-08-07T03:04:23.740Z,36.63
2018-08-07T03:06:54.348Z,37.03
2018-08-07T03:09:30.788Z,37.48
2018-08-07T03:12:02.026Z,36.21
2018-08-07T03:14:32.363Z,36.94
2018-08-07T03:17:02.828Z,36.79
2018-08-07T03:19:32.944Z,37.15
2018-08-07T03:22:03.175Z,37.06
2018-08-07T03:24:34.816Z,37.88
2018-08-07T03:27:05.445Z,38.44
2018-08-07T03:29:35.760Z,38.63
2018-08-07T03:32:06.712Z,39.50
2018-08-07T03:34:37.675Z,39.76
2018-08-07T03:37:07.994Z,39.89
2018-08-07T03:39:39.470Z,40.49
2018-08-07T03:42:10.315Z,40.50
2018-08-07T03:44:42.860Z,40.82
2018-08-07T03:47:25.503Z,40.63
2018-08-07T03:49:57.525Z,40.80
2018-08-07T03:52:27.974Z,40.70
2018-08-07T03:54:58.416Z,41.21
2018-08-07T03:57:29.727Z,41.21
2018-08-07T04:00:00.111Z,41.74
2018-08-07T04:02:32.539Z,41.31
2018-08-07T04:05:02.905Z,40.76
2018-08-07T04:07:33.177Z,40.97
2018-08-07T04:10:04.382Z,41.53
2018-08-07T04:12:34.882Z,41.34
2018-08-07T04:15:13.032Z,42.24
2018-08-07T04:17:44.216Z,41.37
2018-08-07T04:20:19.612Z,42.08
2018-08-07T04:22:50.224Z,41.17
2018-08-07T04:25:20.557Z,41.51
2018-08-07T04:27:51.814Z,40.84
2018-08-07T04:30:22.908Z,40.65
2018-08-07T04:32:54.979Z,40.21
2018-08-07T04:35:25.281Z,40.86
2018-08-07T04:37:56.513Z,41.50
2018-08-07T04:40:28.009Z,41.64
2018-08-07T04:43:00.294Z,42.52
2018-08-07T04:45:31.445Z,42.14
2018-08-07T04:48:02.035Z,42.00
2018-08-07T04:50:32.341Z,41.83
2018-08-07T04:53:03.547Z,41.77
2018-08-07T04:55:33.949Z,42.25
2018-08-07T04:58:05.294Z,42.10
2018-08-07T05:03:42.144Z,40.91
2018-08-07T05:06:12.958Z,40.37
2018-08-07T05:08:44.338Z,40.53
2018-08-07T05:13:59.060Z,40.10
2018-08-07T05:16:29.913Z,39.29
2018-08-07T05:19:02.315Z,39.51
2018-08-07T05:21:34.341Z,38.68
2018-08-07T05:24:05.822Z,38.74
2018-08-07T05:26:37.423Z,37.91
2018-08-07T05:29:08.126Z,38.05
2018-08-07T05:31:39.091Z,37.67
2018-08-07T05:34:09.844Z,37.59
2018-08-07T05:36:41.131Z,38.41
2018-08-07T05:39:12.222Z,37.74
2018-08-07T05:41:43.286Z,37.05
2018-08-07T05:44:14.860Z,36.51
2018-08-07T05:46:47.011Z,36.21
2018-08-07T05:49:19.142Z,36.54
2018-08-07T05:51:49.982Z,36.26
2018-08-07T05:54:21.524Z,35.30
2018-08-07T05:56:53.185Z,34.70
2018-08-07T05:59:24.483Z,34.62
2018-08-07T06:01:57.164Z,33.59
2018-08-07T06:04:28.516Z,33.96
2018-08-07T06:07:00.234Z,34.03
2018-08-07T06:09:34.128Z,33.08
2018-08-07T06:12:05.789Z,32.42
2018-08-07T06:14:36.892Z,31.80
2018-08-07T06:17:12.963Z,31.38
2018-08-07T06:19:43.718Z,30.58
2018-08-07T06:22:16.641Z,30.66
2018-08-07T06:24:50.324Z,30.19
2018-08-07T06:27:21.247Z,29.77
2018-08-07T06:29:52.417Z,29.65
2018-08-07T06:32:25.431Z,28.68
2018-08-07T06:34:57.718Z,28.85
2018-08-07T06:37:28.865Z,28.39
2018-08-07T06:39:59.826Z,28.41
2018-08-07T06:42:31.211Z,27.69
2018-08-07T06:45:06.352Z,27.46
2018-08-07T06:47:39.579Z,27.04
2018-08-07T06:50:15.099Z,26.59
2018-08-07T06:52:47.482Z,26.65
2018-08-07T06:55:19.924Z,26.23
2018-08-07T06:57:53.988Z,26.30
2018-08-07T07:00:31.689Z,26.36
2018-08-07T07:03:03.931Z,25.49
2018-08-07T07:05:35.602Z,25.25
2018-08-07T07:08:06.788Z,25.35
2018-08-07T07:10:38.415Z,25.31
2018-08-07T07:13:12.539Z,24.80
2018-08-07T07:15:46.043Z,24.38
2018-08-07T07:18:22.009Z,23.86
2018-08-07T07:20:57.386Z,24.35
2018-08-07T07:23:31.634Z,24.28
2018-08-07T07:26:03.641Z,25.23
2018-08-07T07:31:12.428Z,24.63
2018-08-07T07:33:42.883Z,23.55
2018-08-07T07:36:14.715Z,23.11
2018-08-07T07:38:47.624Z,22.68
2018-08-07T07:41:20.954Z,22.12
2018-08-07T07:43:57.611Z,22.67
2018-08-07T07:46:29.296Z,21.62
2018-08-07T07:49:02.652Z,22.06
2018-08-07T07:51:34.297Z,22.15
2018-08-07T07:54:05.530Z,21.53
2018-08-07T07:56:36.345Z,21.34
2018-08-07T07:59:11.246Z,21.19
2018-08-07T08:01:48.084Z,20.78
2018-08-07T08:04:20.084Z,21.25
2018-08-07T08:06:50.790Z,20.37
2018-08-07T08:09:22.108Z,20.19
2018-08-07T08:11:52.571Z,19.80
2018-08-07T08:14:31.242Z,20.77
2018-08-07T08:17:02.636Z,20.52
2018-08-07T08:19:34.475Z,20.14
2018-08-07T08:22:07.144Z,19.56
2018-08-07T08:24:39.154Z,20.13
2018-08-07T08:27:13.106Z,19.96
2018-08-07T08:29:48.189Z,19.04
2018-08-07T08:32:19.603Z,18.93
2018-08-07T08:34:50.531Z,18.82
2018-08-07T08:37:21.505Z,18.52
2018-08-07T08:39:53.889Z,18.39
2018-08-07T08:42:25.225Z,18.50
2018-08-07T08:44:55.899Z,17.32
2018-08-07T08:47:28.619Z,17.67
2018-08-07T08:50:01.195Z,17.57
2018-08-07T08:52:32.994Z,17.89
2018-08-07T08:55:14.376Z,18.56
2018-08-07T08:57:51.434Z,17.98
2018-08-07T09:00:27.116Z,17.87
2018-08-07T09:03:02.178Z,18.51
2018-08-07T09:05:34.317Z,18.13
2018-08-07T09:08:06.317Z,18.41
2018-08-07T09:10:39.232Z,17.90
2018-08-07T09:13:10.708Z,17.78
2018-08-07T09:15:42.136Z,17.11
2018-08-07T09:18:13.080Z,17.28
2018-08-07T09:20:43.451Z,17.66
2018-08-07T09:23:13.813Z,16.89
2018-08-07T09:25:49.063Z,17.51
2018-08-07T09:28:19.852Z,17.30
2018-08-07T09:30:50.931Z,17.78
2018-08-07T09:36:22.057Z,17.13
2018-08-07T09:38:55.004Z,16.44
2018-08-07T09:41:34.051Z,16.67
2018-08-07T09:44:05.410Z,16.11
2018-08-07T09:46:37.982Z,16.08
2018-08-07T09:49:11.929Z,16.02
2018-08-07T09:54:37.481Z,15.99
2018-08-07T09:57:20.424Z,15.84
2018-08-07T09:59:59.109Z,15.56
2018-08-07T10:02:38.105Z,15.78
2018-08-07T10:05:10.615Z,14.94
2018-08-07T10:07:48.868Z,14.75
2018-08-07T10:10:23.458Z,15.19
2018-08-07T10:12:58.532Z,14.92
2018-08-07T10:15:30.679Z,14.11
2018-08-07T10:18:02.222Z,14.41
2018-08-07T10:20:35.628Z,14.07
2018-08-07T10:23:08.252Z,14.04
2018-08-07T10:25:42.252Z,14.26
2018-08-07T10:28:31.584Z,13.92
2018-08-07T10:31:06.131Z,12.90
2018-08-07T10:33:37.838Z,13.35
2018-08-07T10:36:15.242Z,13.28
2018-08-07T10:38:49.523Z,13.19
2018-08-07T10:41:26.659Z,13.17
2018-08-07T10:44:00.705Z,13.09
2018-08-07T10:46:31.686Z,12.85
2018-08-07T10:49:03.701Z,12.68
2018-08-07T10:51:38.007Z,13.03
2018-08-07T10:54:12.795Z,14.09
2018-08-07T10:56:46.891Z,14.31
2018-08-07T11:01:56.834Z,14.45
2018-08-07T11:04:30.765Z,13.34
2018-08-07T11:07:11.057Z,14.18
2018-08-07T11:09:43.360Z,13.80
2018-08-07T11:12:17.471Z,13.69
2018-08-07T11:14:49.322Z,13.60
2018-08-07T11:17:26.248Z,12.82
2018-08-07T11:19:59.510Z,13.09
2018-08-07T11:22:32.241Z,12.53
2018-08-07T11:25:06.279Z,12.89
2018-08-07T11:27:37.047Z,12.30
2018-08-07T11:30:19.671Z,11.93
2018-08-07T11:32:58.236Z,12.15
2018-08-07T11:35:30.733Z,11.35
2018-08-07T11:38:02.492Z,11.85
2018-08-07T11:40:34.054Z,11.33
2018-08-07T11:43:10.258Z,11.03
2018-08-07T11:45:41.401Z,11.73
2018-08-07T11:48:15.710Z,11.68
2018-08-07T11:50:48.797Z,11.70
2018-08-07T11:53:20.671Z,11.76
2018-08-07T11:56:30.548Z,11.61
2018-08-07T11:59:03.440Z,11.52
2018-08-07T12:01:34.542Z,10.66
2018-08-07T12:04:05.355Z,10.30
2018-08-07T12:06:41.579Z,11.33
2018-08-07T12:09:15.673Z,10.82
2018-08-07T12:11:47.494Z,11.10
2018-08-07T12:14:20.584Z,11.19
2018-08-07T12:16:52.442Z,10.35
2018-08-07T12:19:25.575Z,10.19
2018-08-07T12:21:57.177Z,10.47
2018-08-07T12:24:29.617Z,10.30
2018-08-07T12:27:02.960Z,11.19
2018-08-07T12:29:34.128Z,11.14
2018-08-07T12:32:06.044Z,11.18
2018-08-07T12:34:40.431Z,10.95
2018-08-07T12:37:12.977Z,10.85
2018-08-07T12:39:44.265Z,10.52
2018-08-07T12:42:15.016Z,10.73
2018-08-07T12:44:45.445Z,10.27
2018-08-07T12:47:16.401Z,10.50
2018-08-07T12:49:48.560Z,11.14
2018-08-07T12:52:18.889Z,11.09
2018-08-07T12:54:50.599Z,10.96
2018-08-07T12:57:21.911Z,10.91
2018-08-07T12:59:56.307Z,11.36
2018-08-07T13:02:28.296Z,11.13
2018-08-07T13:05:01.129Z,11.14
2018-08-07T13:07:34.614Z,11.26
2018-08-07T13:10:17.721Z,10.25
2018-08-07T13:12:53.465Z,10.85
2018-08-07T13:15:28.449Z,11.05
2018-08-07T13:17:59.742Z,10.99
2018-08-07T13:20:38.714Z,11.04
2018-08-07T13:23:15.970Z,11.14
2018-08-07T13:25:49.737Z,10.45
2018-08-07T13:28:38.390Z,10.31
2018-08-07T13:31:18.557Z,10.27
2018-08-07T13:37:07.163Z,9.42
2018-08-07T13:39:37.063Z,8.87
2018-08-07T13:42:11.287Z,9.85
2018-08-07T13:44:45.253Z,10.38
2018-08-07T13:47:16.281Z,9.87
2018-08-07T13:49:45.870Z,10.38
2018-08-07T13:52:16.298Z,9.95
2018-08-07T18:24:58.430Z,14.57
2018-08-07T18:27:38.298Z,14.77
2018-08-07T18:30:17.975Z,14.87
2018-08-07T18:32:49.535Z,14.67
2018-08-07T18:35:27.905Z,14.63
2018-08-07T18:38:00.269Z,14.74
2018-08-07T18:40:30.471Z,14.89
2018-08-07T18:43:08.863Z,15.01
2018-08-07T18:45:41.667Z,14.93
2018-08-07T18:48:13.814Z,15.08
2018-08-07T18:50:44.366Z,14.83
2018-08-07T18:53:14.368Z,14.94
2018-08-07T18:55:47.317Z,15.85
2018-08-07T18:58:17.397Z,15.31
2018-08-07T19:00:48.354Z,15.56
2018-08-07T19:03:23.878Z,15.42
2018-08-07T19:05:53.378Z,15.46
2018-08-07T19:08:24.984Z,15.50
2018-08-07T19:10:54.468Z,16.00
2018-08-07T19:13:27.390Z,15.74
2018-08-07T19:15:58.285Z,16.28
2018-08-07T19:18:29.669Z,16.13
2018-08-07T19:21:19.035Z,15.81
2018-08-07T19:23:49.073Z,15.95
2018-08-07T19:26:23.465Z,16.39
2018-08-07T19:28:54.371Z,16.25
2018-08-07T19:31:24.928Z,16.74
2018-08-07T19:33:57.965Z,16.86
2018-08-07T19:36:31.124Z,17.38
2018-08-07T19:39:00.674Z,17.44
2018-08-07T19:41:32.688Z,18.20
2018-08-07T19:44:03.836Z,17.73
2018-08-07T19:46:37.386Z,17.75
2018-08-07T19:49:09.899Z,18.26
2018-08-07T19:51:42.063Z,18.89
2018-08-07T19:54:16.853Z,18.76
2018-08-07T19:56:55.940Z,18.97
2018-08-07T19:59:26.201Z,18.96
2018-08-07T20:02:00.043Z,19.27
2018-08-07T20:04:35.249Z,19.49
2018-08-07T20:07:07.295Z,19.36
2018-08-07T20:09:42.432Z,19.93
2018-08-07T20:12:13.090Z,19.98
2018-08-07T20:17:31.716Z,20.28
2018-08-07T20:20:02.846Z,20.77
2018-08-07T20:22:33.908Z,21.10
2018-08-07T20:25:04.998Z,21.16
2018-08-07T20:27:41.301Z,21.26
2018-08-07T20:30:17.304Z,22.05
2018-08-07T20:32:54.709Z,22.03
2018-08-07T20:35:44.203Z,22.47
2018-08-07T20:38:18.314Z,21.79
2018-08-07T20:40:49.997Z,22.19
2018-08-07T20:43:22.159Z,22.65
2018-08-07T20:45:54.354Z,22.41
2018-08-07T20:48:33.338Z,22.60
2018-08-07T20:51:04.794Z,22.41
2018-08-07T20:53:47.513Z,22.40
2018-08-07T20:56:29.801Z,21.80
2018-08-07T20:59:12.017Z,22.37
2018-08-07T21:01:49.347Z,22.46
2018-08-07T21:04:23.237Z,22.08
2018-08-07T21:06:55.024Z,22.52
2018-08-07T21:09:28.355Z,23.19
2018-08-07T21:12:05.857Z,23.07
2018-08-07T21:14:37.298Z,23.95
2018-08-07T21:17:10.544Z,24.22
2018-08-07T21:19:44.672Z,23.43
2018-08-07T21:22:16.504Z,23.44
2018-08-07T21:25:00.117Z,24.29
2018-08-07T21:27:32.297Z,24.17
2018-08-07T21:32:54.624Z,24.25
2018-08-07T21:35:27.680Z,23.79
2018-08-07T21:38:12.235Z,23.47
2018-08-07T21:40:43.942Z,23.29
2018-08-07T21:43:15.794Z,24.05
2018-08-07T21:45:51.687Z,24.67
2018-08-07T21:48:24.338Z,24.27
2018-08-07T21:51:03.175Z,24.77
2018-08-07T21:53:36.313Z,26.04
2018-08-07T21:56:14.764Z,25.48
2018-08-07T21:58:46.503Z,25.52
2018-08-07T22:01:23.180Z,26.19
2018-08-07T22:03:57.245Z,25.49
2018-08-07T22:06:29.994Z,25.68
2018-08-07T22:09:01.409Z,25.94
2018-08-07T22:11:34.406Z,25.78
2018-08-07T22:14:09.267Z,25.34
2018-08-07T22:16:46.365Z,25.73
2018-08-07T22:19:18.295Z,25.28
2018-08-07T22:21:52.063Z,25.21
2018-08-07T22:24:21.970Z,25.54
2018-08-07T22:26:53.808Z,25.08
2018-08-07T22:29:28.345Z,24.79
2018-08-07T22:32:10.860Z,24.69
2018-08-07T22:34:41.008Z,24.90
2018-08-07T22:37:10.886Z,24.51
2018-08-07T22:39:43.601Z,25.75
2018-08-07T22:42:16.293Z,25.70
2018-08-07T22:45:08.114Z,25.82
2018-08-07T22:47:40.241Z,25.10
2018-08-07T22:50:19.788Z,25.56
2018-08-07T22:52:54.679Z,25.49
2018-08-07T22:55:26.844Z,26.02
2018-08-07T22:57:59.384Z,26.09
2018-08-07T23:00:29.564Z,25.74
2018-08-07T23:03:02.328Z,25.90
2018-08-07T23:05:41.616Z,25.97
2018-08-07T23:08:12.674Z,26.44
2018-08-07T23:10:43.824Z,27.50
2018-08-07T23:13:14.409Z,28.36
2018-08-07T23:15:46.590Z,27.95
2018-08-07T23:18:21.050Z,27.79
2018-08-07T23:20:52.060Z,28.08
2018-08-07T23:23:24.124Z,28.12
2018-08-07T23:25:55.986Z,28.65
2018-08-07T23:28:25.708Z,29.19
2018-08-07T23:30:55.487Z,28.88
2018-08-07T23:33:29.259Z,30.22
2018-08-07T23:36:00.322Z,30.70
2018-08-07T23:38:30.823Z,31.37
2018-08-07T23:41:00.425Z,32.56
2018-08-07T23:43:33.649Z,32.42
2018-08-07T23:46:04.656Z,33.25
2018-08-07T23:48:35.524Z,34.76
2018-08-07T23:51:05.941Z,34.83
2018-08-07T23:53:35.767Z,35.20
2018-08-07T23:56:06.601Z,35.83
2018-08-07T23:58:42.341Z,36.34
